<?xml version="1.0" encoding="UTF-8" standalone="no" ?>
<gpx xmlns="http://www.topografix.com/GPX/1/1" xmlns:xsi="http://www.w3.org/2001/XMLSchema-instance" xsi:schemaLocation="http://www.topografix.com/GPX/1/1 http://www.topografix.com/GPX/1/1/gpx.xsd" version="1.1" creator="VisuGPX - https://www.visugpx.com">
  <metadata>
    <name>83-V-Claviers</name>
    <desc><![CDATA[83-V-Claviers : chapelle St Anne]]></desc>
  </metadata>
  <trk>
    <name><![CDATA[2018-06-15-V-clavier chapelle st Anne]]></name>
    <trkseg>
      <trkpt lat="43.60446" lon="6.56984">
        <ele>486.6</ele>
        <time>2018-06-15T07:14:52Z</time>
      </trkpt>
      <trkpt lat="43.60446" lon="6.56984">
        <ele>486.6</ele>
        <time>2018-06-15T07:14:53Z</time>
      </trkpt>
      <trkpt lat="43.6044" lon="6.56995">
        <ele>491.1</ele>
        <time>2018-06-15T07:15:30Z</time>
      </trkpt>
      <trkpt lat="43.6044" lon="6.57009">
        <ele>492.1</ele>
        <time>2018-06-15T07:15:35Z</time>
      </trkpt>
      <trkpt lat="43.60438" lon="6.57022">
        <ele>494.1</ele>
        <time>2018-06-15T07:15:45Z</time>
      </trkpt>
      <trkpt lat="43.60433" lon="6.57034">
        <ele>492.3</ele>
        <time>2018-06-15T07:15:53Z</time>
      </trkpt>
      <trkpt lat="43.60428" lon="6.57046">
        <ele>494.6</ele>
        <time>2018-06-15T07:16:00Z</time>
      </trkpt>
      <trkpt lat="43.60427" lon="6.5706">
        <ele>495.3</ele>
        <time>2018-06-15T07:16:08Z</time>
      </trkpt>
      <trkpt lat="43.60427" lon="6.57073">
        <ele>496.2</ele>
        <time>2018-06-15T07:16:15Z</time>
      </trkpt>
      <trkpt lat="43.60428" lon="6.57085">
        <ele>496.9</ele>
        <time>2018-06-15T07:16:23Z</time>
      </trkpt>
      <trkpt lat="43.6043" lon="6.57097">
        <ele>497.7</ele>
        <time>2018-06-15T07:16:32Z</time>
      </trkpt>
      <trkpt lat="43.60432" lon="6.5711">
        <ele>498.4</ele>
        <time>2018-06-15T07:16:40Z</time>
      </trkpt>
      <trkpt lat="43.60432" lon="6.57122">
        <ele>499.1</ele>
        <time>2018-06-15T07:16:50Z</time>
      </trkpt>
      <trkpt lat="43.60432" lon="6.57135">
        <ele>500</ele>
        <time>2018-06-15T07:16:58Z</time>
      </trkpt>
      <trkpt lat="43.6043" lon="6.57148">
        <ele>500.9</ele>
        <time>2018-06-15T07:17:07Z</time>
      </trkpt>
      <trkpt lat="43.6043" lon="6.57161">
        <ele>501.4</ele>
        <time>2018-06-15T07:17:16Z</time>
      </trkpt>
      <trkpt lat="43.60429" lon="6.57174">
        <ele>502.3</ele>
        <time>2018-06-15T07:17:25Z</time>
      </trkpt>
      <trkpt lat="43.60429" lon="6.57187">
        <ele>498.7</ele>
        <time>2018-06-15T07:17:36Z</time>
      </trkpt>
      <trkpt lat="43.60429" lon="6.572">
        <ele>504.8</ele>
        <time>2018-06-15T07:17:44Z</time>
      </trkpt>
      <trkpt lat="43.60426" lon="6.57213">
        <ele>505.6</ele>
        <time>2018-06-15T07:17:52Z</time>
      </trkpt>
      <trkpt lat="43.60426" lon="6.57226">
        <ele>506</ele>
        <time>2018-06-15T07:18:02Z</time>
      </trkpt>
      <trkpt lat="43.60427" lon="6.5724">
        <ele>506.8</ele>
        <time>2018-06-15T07:18:12Z</time>
      </trkpt>
      <trkpt lat="43.60429" lon="6.57253">
        <ele>508</ele>
        <time>2018-06-15T07:18:22Z</time>
      </trkpt>
      <trkpt lat="43.60431" lon="6.57266">
        <ele>509.3</ele>
        <time>2018-06-15T07:18:33Z</time>
      </trkpt>
      <trkpt lat="43.60432" lon="6.57279">
        <ele>510.7</ele>
        <time>2018-06-15T07:18:42Z</time>
      </trkpt>
      <trkpt lat="43.60437" lon="6.57291">
        <ele>511.9</ele>
        <time>2018-06-15T07:18:54Z</time>
      </trkpt>
      <trkpt lat="43.60441" lon="6.57303">
        <ele>513.3</ele>
        <time>2018-06-15T07:19:05Z</time>
      </trkpt>
      <trkpt lat="43.60445" lon="6.57315">
        <ele>514.7</ele>
        <time>2018-06-15T07:19:16Z</time>
      </trkpt>
      <trkpt lat="43.60448" lon="6.57327">
        <ele>516.1</ele>
        <time>2018-06-15T07:19:26Z</time>
      </trkpt>
      <trkpt lat="43.60451" lon="6.57339">
        <ele>517.7</ele>
        <time>2018-06-15T07:19:36Z</time>
      </trkpt>
      <trkpt lat="43.60455" lon="6.57351">
        <ele>518.9</ele>
        <time>2018-06-15T07:19:47Z</time>
      </trkpt>
      <trkpt lat="43.60456" lon="6.57363">
        <ele>519.9</ele>
        <time>2018-06-15T07:19:58Z</time>
      </trkpt>
      <trkpt lat="43.60458" lon="6.57376">
        <ele>521.3</ele>
        <time>2018-06-15T07:20:09Z</time>
      </trkpt>
      <trkpt lat="43.60461" lon="6.5739">
        <ele>522.9</ele>
        <time>2018-06-15T07:20:21Z</time>
      </trkpt>
      <trkpt lat="43.60464" lon="6.57402">
        <ele>524.4</ele>
        <time>2018-06-15T07:20:32Z</time>
      </trkpt>
      <trkpt lat="43.60466" lon="6.57414">
        <ele>526.5</ele>
        <time>2018-06-15T07:20:43Z</time>
      </trkpt>
      <trkpt lat="43.60469" lon="6.57426">
        <ele>527.6</ele>
        <time>2018-06-15T07:20:53Z</time>
      </trkpt>
      <trkpt lat="43.60472" lon="6.57438">
        <ele>529.2</ele>
        <time>2018-06-15T07:21:04Z</time>
      </trkpt>
      <trkpt lat="43.60474" lon="6.57451">
        <ele>530.4</ele>
        <time>2018-06-15T07:21:18Z</time>
      </trkpt>
      <trkpt lat="43.60479" lon="6.57462">
        <ele>531.7</ele>
        <time>2018-06-15T07:21:32Z</time>
      </trkpt>
      <trkpt lat="43.60482" lon="6.57474">
        <ele>533.1</ele>
        <time>2018-06-15T07:21:45Z</time>
      </trkpt>
      <trkpt lat="43.60483" lon="6.57487">
        <ele>534.4</ele>
        <time>2018-06-15T07:21:56Z</time>
      </trkpt>
      <trkpt lat="43.60485" lon="6.57499">
        <ele>536</ele>
        <time>2018-06-15T07:22:07Z</time>
      </trkpt>
      <trkpt lat="43.60489" lon="6.57512">
        <ele>537.3</ele>
        <time>2018-06-15T07:22:19Z</time>
      </trkpt>
      <trkpt lat="43.60491" lon="6.57524">
        <ele>538.5</ele>
        <time>2018-06-15T07:22:39Z</time>
      </trkpt>
      <trkpt lat="43.60493" lon="6.57537">
        <ele>539.8</ele>
        <time>2018-06-15T07:22:51Z</time>
      </trkpt>
      <trkpt lat="43.60499" lon="6.57548">
        <ele>541</ele>
        <time>2018-06-15T07:23:05Z</time>
      </trkpt>
      <trkpt lat="43.60497" lon="6.57561">
        <ele>541.8</ele>
        <time>2018-06-15T07:23:26Z</time>
      </trkpt>
      <trkpt lat="43.60499" lon="6.57573">
        <ele>542.6</ele>
        <time>2018-06-15T07:23:39Z</time>
      </trkpt>
      <trkpt lat="43.60503" lon="6.57585">
        <ele>543.4</ele>
        <time>2018-06-15T07:23:57Z</time>
      </trkpt>
      <trkpt lat="43.6051" lon="6.57594">
        <ele>544</ele>
        <time>2018-06-15T07:25:18Z</time>
      </trkpt>
      <trkpt lat="43.60517" lon="6.57603">
        <ele>545</ele>
        <time>2018-06-15T07:25:30Z</time>
      </trkpt>
      <trkpt lat="43.60523" lon="6.57613">
        <ele>546</ele>
        <time>2018-06-15T07:25:42Z</time>
      </trkpt>
      <trkpt lat="43.60528" lon="6.57625">
        <ele>547.7</ele>
        <time>2018-06-15T07:25:54Z</time>
      </trkpt>
      <trkpt lat="43.60533" lon="6.57635">
        <ele>548.9</ele>
        <time>2018-06-15T07:26:05Z</time>
      </trkpt>
      <trkpt lat="43.6054" lon="6.57645">
        <ele>550.3</ele>
        <time>2018-06-15T07:26:17Z</time>
      </trkpt>
      <trkpt lat="43.60541" lon="6.57659">
        <ele>551.9</ele>
        <time>2018-06-15T07:29:39Z</time>
      </trkpt>
      <trkpt lat="43.60539" lon="6.57673">
        <ele>550.5</ele>
        <time>2018-06-15T07:29:47Z</time>
      </trkpt>
      <trkpt lat="43.60537" lon="6.57686">
        <ele>552.4</ele>
        <time>2018-06-15T07:29:52Z</time>
      </trkpt>
      <trkpt lat="43.6054" lon="6.57699">
        <ele>552.9</ele>
        <time>2018-06-15T07:30:01Z</time>
      </trkpt>
      <trkpt lat="43.60541" lon="6.57712">
        <ele>552.8</ele>
        <time>2018-06-15T07:30:13Z</time>
      </trkpt>
      <trkpt lat="43.60541" lon="6.57725">
        <ele>554.5</ele>
        <time>2018-06-15T07:30:22Z</time>
      </trkpt>
      <trkpt lat="43.60539" lon="6.57738">
        <ele>554.9</ele>
        <time>2018-06-15T07:30:33Z</time>
      </trkpt>
      <trkpt lat="43.60539" lon="6.57751">
        <ele>555.5</ele>
        <time>2018-06-15T07:30:40Z</time>
      </trkpt>
      <trkpt lat="43.60537" lon="6.57764">
        <ele>556.9</ele>
        <time>2018-06-15T07:30:48Z</time>
      </trkpt>
      <trkpt lat="43.60537" lon="6.57779">
        <ele>557.5</ele>
        <time>2018-06-15T07:30:55Z</time>
      </trkpt>
      <trkpt lat="43.6054" lon="6.57794">
        <ele>557.9</ele>
        <time>2018-06-15T07:31:01Z</time>
      </trkpt>
      <trkpt lat="43.60543" lon="6.57807">
        <ele>558.3</ele>
        <time>2018-06-15T07:31:07Z</time>
      </trkpt>
      <trkpt lat="43.60544" lon="6.57821">
        <ele>559.4</ele>
        <time>2018-06-15T07:31:14Z</time>
      </trkpt>
      <trkpt lat="43.60546" lon="6.57834">
        <ele>559.4</ele>
        <time>2018-06-15T07:31:20Z</time>
      </trkpt>
      <trkpt lat="43.60549" lon="6.57848">
        <ele>559.5</ele>
        <time>2018-06-15T07:31:25Z</time>
      </trkpt>
      <trkpt lat="43.6055" lon="6.57861">
        <ele>559.7</ele>
        <time>2018-06-15T07:31:31Z</time>
      </trkpt>
      <trkpt lat="43.60549" lon="6.57874">
        <ele>559.5</ele>
        <time>2018-06-15T07:31:37Z</time>
      </trkpt>
      <trkpt lat="43.60548" lon="6.57888">
        <ele>559.7</ele>
        <time>2018-06-15T07:31:44Z</time>
      </trkpt>
      <trkpt lat="43.60548" lon="6.57902">
        <ele>559.1</ele>
        <time>2018-06-15T07:31:51Z</time>
      </trkpt>
      <trkpt lat="43.60548" lon="6.57915">
        <ele>559.8</ele>
        <time>2018-06-15T07:31:58Z</time>
      </trkpt>
      <trkpt lat="43.60549" lon="6.57928">
        <ele>559.5</ele>
        <time>2018-06-15T07:32:04Z</time>
      </trkpt>
      <trkpt lat="43.60548" lon="6.57942">
        <ele>560.6</ele>
        <time>2018-06-15T07:32:11Z</time>
      </trkpt>
      <trkpt lat="43.60547" lon="6.57955">
        <ele>560.1</ele>
        <time>2018-06-15T07:32:18Z</time>
      </trkpt>
      <trkpt lat="43.60546" lon="6.57968">
        <ele>560.4</ele>
        <time>2018-06-15T07:32:25Z</time>
      </trkpt>
      <trkpt lat="43.60545" lon="6.5798">
        <ele>561.5</ele>
        <time>2018-06-15T07:32:34Z</time>
      </trkpt>
      <trkpt lat="43.60547" lon="6.57993">
        <ele>562</ele>
        <time>2018-06-15T07:32:42Z</time>
      </trkpt>
      <trkpt lat="43.6055" lon="6.58006">
        <ele>561.5</ele>
        <time>2018-06-15T07:32:51Z</time>
      </trkpt>
      <trkpt lat="43.60551" lon="6.58018">
        <ele>562.6</ele>
        <time>2018-06-15T07:33:00Z</time>
      </trkpt>
      <trkpt lat="43.60555" lon="6.5803">
        <ele>562.6</ele>
        <time>2018-06-15T07:33:10Z</time>
      </trkpt>
      <trkpt lat="43.60556" lon="6.58044">
        <ele>563.5</ele>
        <time>2018-06-15T07:33:22Z</time>
      </trkpt>
      <trkpt lat="43.60557" lon="6.58057">
        <ele>564.4</ele>
        <time>2018-06-15T07:33:33Z</time>
      </trkpt>
      <trkpt lat="43.60557" lon="6.5807">
        <ele>565.4</ele>
        <time>2018-06-15T07:33:44Z</time>
      </trkpt>
      <trkpt lat="43.60558" lon="6.58083">
        <ele>566.4</ele>
        <time>2018-06-15T07:33:56Z</time>
      </trkpt>
      <trkpt lat="43.6056" lon="6.58095">
        <ele>567</ele>
        <time>2018-06-15T07:34:05Z</time>
      </trkpt>
      <trkpt lat="43.60563" lon="6.58108">
        <ele>568</ele>
        <time>2018-06-15T07:34:17Z</time>
      </trkpt>
      <trkpt lat="43.60564" lon="6.5812">
        <ele>569</ele>
        <time>2018-06-15T07:34:27Z</time>
      </trkpt>
      <trkpt lat="43.60566" lon="6.58132">
        <ele>569.7</ele>
        <time>2018-06-15T07:34:36Z</time>
      </trkpt>
      <trkpt lat="43.60569" lon="6.58145">
        <ele>570.8</ele>
        <time>2018-06-15T07:34:47Z</time>
      </trkpt>
      <trkpt lat="43.60567" lon="6.58158">
        <ele>571.7</ele>
        <time>2018-06-15T07:34:59Z</time>
      </trkpt>
      <trkpt lat="43.60562" lon="6.58168">
        <ele>571.7</ele>
        <time>2018-06-15T07:35:10Z</time>
      </trkpt>
      <trkpt lat="43.60554" lon="6.58176">
        <ele>571.8</ele>
        <time>2018-06-15T07:35:17Z</time>
      </trkpt>
      <trkpt lat="43.60552" lon="6.58188">
        <ele>570.2</ele>
        <time>2018-06-15T07:35:30Z</time>
      </trkpt>
      <trkpt lat="43.60546" lon="6.58197">
        <ele>568.9</ele>
        <time>2018-06-15T07:35:42Z</time>
      </trkpt>
      <trkpt lat="43.60542" lon="6.58209">
        <ele>567.4</ele>
        <time>2018-06-15T07:35:52Z</time>
      </trkpt>
      <trkpt lat="43.60536" lon="6.58219">
        <ele>566.5</ele>
        <time>2018-06-15T07:36:02Z</time>
      </trkpt>
      <trkpt lat="43.6053" lon="6.58229">
        <ele>565.3</ele>
        <time>2018-06-15T07:36:14Z</time>
      </trkpt>
      <trkpt lat="43.60522" lon="6.58238">
        <ele>564</ele>
        <time>2018-06-15T07:36:24Z</time>
      </trkpt>
      <trkpt lat="43.60517" lon="6.58249">
        <ele>563.1</ele>
        <time>2018-06-15T07:36:34Z</time>
      </trkpt>
      <trkpt lat="43.60515" lon="6.58261">
        <ele>562.7</ele>
        <time>2018-06-15T07:36:42Z</time>
      </trkpt>
      <trkpt lat="43.60512" lon="6.58274">
        <ele>562.1</ele>
        <time>2018-06-15T07:36:52Z</time>
      </trkpt>
      <trkpt lat="43.60515" lon="6.58286">
        <ele>561.8</ele>
        <time>2018-06-15T07:37:02Z</time>
      </trkpt>
      <trkpt lat="43.60517" lon="6.58299">
        <ele>561.5</ele>
        <time>2018-06-15T07:37:14Z</time>
      </trkpt>
      <trkpt lat="43.60517" lon="6.58311">
        <ele>561.3</ele>
        <time>2018-06-15T07:38:15Z</time>
      </trkpt>
      <trkpt lat="43.60521" lon="6.58324">
        <ele>560.9</ele>
        <time>2018-06-15T07:38:26Z</time>
      </trkpt>
      <trkpt lat="43.60524" lon="6.58336">
        <ele>560.8</ele>
        <time>2018-06-15T07:38:37Z</time>
      </trkpt>
      <trkpt lat="43.60524" lon="6.58349">
        <ele>560.5</ele>
        <time>2018-06-15T07:38:45Z</time>
      </trkpt>
      <trkpt lat="43.60524" lon="6.58362">
        <ele>559.9</ele>
        <time>2018-06-15T07:38:55Z</time>
      </trkpt>
      <trkpt lat="43.60521" lon="6.58374">
        <ele>559.6</ele>
        <time>2018-06-15T07:39:03Z</time>
      </trkpt>
      <trkpt lat="43.60519" lon="6.58388">
        <ele>559.2</ele>
        <time>2018-06-15T07:39:13Z</time>
      </trkpt>
      <trkpt lat="43.60519" lon="6.58402">
        <ele>558.4</ele>
        <time>2018-06-15T07:39:22Z</time>
      </trkpt>
      <trkpt lat="43.60519" lon="6.58417">
        <ele>558.8</ele>
        <time>2018-06-15T07:39:34Z</time>
      </trkpt>
      <trkpt lat="43.60516" lon="6.58429">
        <ele>558.6</ele>
        <time>2018-06-15T07:39:44Z</time>
      </trkpt>
      <trkpt lat="43.60513" lon="6.58442">
        <ele>558.5</ele>
        <time>2018-06-15T07:39:56Z</time>
      </trkpt>
      <trkpt lat="43.60508" lon="6.58453">
        <ele>558.2</ele>
        <time>2018-06-15T07:40:04Z</time>
      </trkpt>
      <trkpt lat="43.60505" lon="6.58465">
        <ele>558.7</ele>
        <time>2018-06-15T07:40:12Z</time>
      </trkpt>
      <trkpt lat="43.605" lon="6.58476">
        <ele>559.3</ele>
        <time>2018-06-15T07:40:24Z</time>
      </trkpt>
      <trkpt lat="43.60496" lon="6.58488">
        <ele>560.5</ele>
        <time>2018-06-15T07:40:34Z</time>
      </trkpt>
      <trkpt lat="43.60496" lon="6.58501">
        <ele>560.9</ele>
        <time>2018-06-15T07:40:43Z</time>
      </trkpt>
      <trkpt lat="43.60495" lon="6.58515">
        <ele>561.7</ele>
        <time>2018-06-15T07:40:52Z</time>
      </trkpt>
      <trkpt lat="43.60494" lon="6.58528">
        <ele>562.2</ele>
        <time>2018-06-15T07:41:00Z</time>
      </trkpt>
      <trkpt lat="43.60491" lon="6.5854">
        <ele>562.2</ele>
        <time>2018-06-15T07:41:08Z</time>
      </trkpt>
      <trkpt lat="43.6049" lon="6.58553">
        <ele>563.1</ele>
        <time>2018-06-15T07:41:16Z</time>
      </trkpt>
      <trkpt lat="43.60486" lon="6.58566">
        <ele>563.5</ele>
        <time>2018-06-15T07:41:27Z</time>
      </trkpt>
      <trkpt lat="43.60483" lon="6.58578">
        <ele>563.3</ele>
        <time>2018-06-15T07:41:39Z</time>
      </trkpt>
      <trkpt lat="43.6048" lon="6.5859">
        <ele>562.3</ele>
        <time>2018-06-15T07:41:49Z</time>
      </trkpt>
      <trkpt lat="43.60478" lon="6.58604">
        <ele>561.5</ele>
        <time>2018-06-15T07:42:00Z</time>
      </trkpt>
      <trkpt lat="43.60476" lon="6.58616">
        <ele>561</ele>
        <time>2018-06-15T07:42:07Z</time>
      </trkpt>
      <trkpt lat="43.60476" lon="6.58629">
        <ele>560.6</ele>
        <time>2018-06-15T07:42:15Z</time>
      </trkpt>
      <trkpt lat="43.60477" lon="6.58642">
        <ele>561</ele>
        <time>2018-06-15T07:42:25Z</time>
      </trkpt>
      <trkpt lat="43.60479" lon="6.58655">
        <ele>561.6</ele>
        <time>2018-06-15T07:42:35Z</time>
      </trkpt>
      <trkpt lat="43.60482" lon="6.58666">
        <ele>562.1</ele>
        <time>2018-06-15T07:42:45Z</time>
      </trkpt>
      <trkpt lat="43.60483" lon="6.58679">
        <ele>562.8</ele>
        <time>2018-06-15T07:42:53Z</time>
      </trkpt>
      <trkpt lat="43.60483" lon="6.58692">
        <ele>564</ele>
        <time>2018-06-15T07:43:03Z</time>
      </trkpt>
      <trkpt lat="43.60486" lon="6.58705">
        <ele>564.9</ele>
        <time>2018-06-15T07:43:14Z</time>
      </trkpt>
      <trkpt lat="43.60488" lon="6.58718">
        <ele>565.8</ele>
        <time>2018-06-15T07:43:23Z</time>
      </trkpt>
      <trkpt lat="43.6049" lon="6.5873">
        <ele>566.5</ele>
        <time>2018-06-15T07:43:32Z</time>
      </trkpt>
      <trkpt lat="43.60494" lon="6.58742">
        <ele>567.8</ele>
        <time>2018-06-15T07:43:44Z</time>
      </trkpt>
      <trkpt lat="43.60498" lon="6.58753">
        <ele>568.1</ele>
        <time>2018-06-15T07:43:56Z</time>
      </trkpt>
      <trkpt lat="43.60502" lon="6.58765">
        <ele>568.4</ele>
        <time>2018-06-15T07:44:06Z</time>
      </trkpt>
      <trkpt lat="43.60504" lon="6.58778">
        <ele>568.4</ele>
        <time>2018-06-15T07:44:15Z</time>
      </trkpt>
      <trkpt lat="43.60505" lon="6.58791">
        <ele>568.1</ele>
        <time>2018-06-15T07:44:24Z</time>
      </trkpt>
      <trkpt lat="43.60508" lon="6.58804">
        <ele>568</ele>
        <time>2018-06-15T07:44:34Z</time>
      </trkpt>
      <trkpt lat="43.60511" lon="6.58817">
        <ele>568.3</ele>
        <time>2018-06-15T07:44:45Z</time>
      </trkpt>
      <trkpt lat="43.60517" lon="6.58828">
        <ele>569</ele>
        <time>2018-06-15T07:44:56Z</time>
      </trkpt>
      <trkpt lat="43.60521" lon="6.58839">
        <ele>569.5</ele>
        <time>2018-06-15T07:45:06Z</time>
      </trkpt>
      <trkpt lat="43.60524" lon="6.58852">
        <ele>569.7</ele>
        <time>2018-06-15T07:45:15Z</time>
      </trkpt>
      <trkpt lat="43.60527" lon="6.58864">
        <ele>570.6</ele>
        <time>2018-06-15T07:45:26Z</time>
      </trkpt>
      <trkpt lat="43.60529" lon="6.58877">
        <ele>571.4</ele>
        <time>2018-06-15T07:45:36Z</time>
      </trkpt>
      <trkpt lat="43.60532" lon="6.58889">
        <ele>572.1</ele>
        <time>2018-06-15T07:45:46Z</time>
      </trkpt>
      <trkpt lat="43.60536" lon="6.58901">
        <ele>573.2</ele>
        <time>2018-06-15T07:45:56Z</time>
      </trkpt>
      <trkpt lat="43.6054" lon="6.58913">
        <ele>573.4</ele>
        <time>2018-06-15T07:46:04Z</time>
      </trkpt>
      <trkpt lat="43.60544" lon="6.58925">
        <ele>573.5</ele>
        <time>2018-06-15T07:46:16Z</time>
      </trkpt>
      <trkpt lat="43.6055" lon="6.58935">
        <ele>571.9</ele>
        <time>2018-06-15T07:46:26Z</time>
      </trkpt>
      <trkpt lat="43.60556" lon="6.58945">
        <ele>571.2</ele>
        <time>2018-06-15T07:46:35Z</time>
      </trkpt>
      <trkpt lat="43.6056" lon="6.58956">
        <ele>570.5</ele>
        <time>2018-06-15T07:46:44Z</time>
      </trkpt>
      <trkpt lat="43.60562" lon="6.58969">
        <ele>570.4</ele>
        <time>2018-06-15T07:46:53Z</time>
      </trkpt>
      <trkpt lat="43.60562" lon="6.58982">
        <ele>570.1</ele>
        <time>2018-06-15T07:46:59Z</time>
      </trkpt>
      <trkpt lat="43.60564" lon="6.58996">
        <ele>570</ele>
        <time>2018-06-15T07:47:10Z</time>
      </trkpt>
      <trkpt lat="43.60567" lon="6.59008">
        <ele>570.2</ele>
        <time>2018-06-15T07:47:21Z</time>
      </trkpt>
      <trkpt lat="43.6057" lon="6.59023">
        <ele>570.8</ele>
        <time>2018-06-15T07:47:31Z</time>
      </trkpt>
      <trkpt lat="43.6057" lon="6.59037">
        <ele>570.5</ele>
        <time>2018-06-15T07:47:40Z</time>
      </trkpt>
      <trkpt lat="43.60572" lon="6.59049">
        <ele>569.8</ele>
        <time>2018-06-15T07:47:49Z</time>
      </trkpt>
      <trkpt lat="43.60579" lon="6.59058">
        <ele>569.3</ele>
        <time>2018-06-15T07:48:06Z</time>
      </trkpt>
      <trkpt lat="43.60588" lon="6.5906">
        <ele>570.2</ele>
        <time>2018-06-15T07:48:36Z</time>
      </trkpt>
      <trkpt lat="43.60596" lon="6.59057">
        <ele>571.7</ele>
        <time>2018-06-15T07:48:50Z</time>
      </trkpt>
      <trkpt lat="43.60606" lon="6.59056">
        <ele>573.6</ele>
        <time>2018-06-15T07:49:06Z</time>
      </trkpt>
      <trkpt lat="43.60615" lon="6.59053">
        <ele>574.2</ele>
        <time>2018-06-15T07:49:16Z</time>
      </trkpt>
      <trkpt lat="43.60624" lon="6.59052">
        <ele>575.3</ele>
        <time>2018-06-15T07:49:26Z</time>
      </trkpt>
      <trkpt lat="43.60633" lon="6.5905">
        <ele>576.1</ele>
        <time>2018-06-15T07:49:36Z</time>
      </trkpt>
      <trkpt lat="43.60642" lon="6.59046">
        <ele>577.3</ele>
        <time>2018-06-15T07:49:47Z</time>
      </trkpt>
      <trkpt lat="43.60651" lon="6.5904">
        <ele>578.6</ele>
        <time>2018-06-15T07:49:58Z</time>
      </trkpt>
      <trkpt lat="43.60659" lon="6.59035">
        <ele>580.1</ele>
        <time>2018-06-15T07:50:12Z</time>
      </trkpt>
      <trkpt lat="43.60668" lon="6.59028">
        <ele>581.8</ele>
        <time>2018-06-15T07:50:28Z</time>
      </trkpt>
      <trkpt lat="43.60672" lon="6.59016">
        <ele>583.8</ele>
        <time>2018-06-15T07:50:42Z</time>
      </trkpt>
      <trkpt lat="43.6067" lon="6.59004">
        <ele>585.3</ele>
        <time>2018-06-15T07:50:54Z</time>
      </trkpt>
      <trkpt lat="43.60664" lon="6.58994">
        <ele>586.8</ele>
        <time>2018-06-15T07:51:07Z</time>
      </trkpt>
      <trkpt lat="43.60656" lon="6.58986">
        <ele>588</ele>
        <time>2018-06-15T07:51:18Z</time>
      </trkpt>
      <trkpt lat="43.60649" lon="6.58978">
        <ele>588.8</ele>
        <time>2018-06-15T07:51:30Z</time>
      </trkpt>
      <trkpt lat="43.6064" lon="6.58971">
        <ele>589.6</ele>
        <time>2018-06-15T07:51:43Z</time>
      </trkpt>
      <trkpt lat="43.60632" lon="6.58965">
        <ele>590.6</ele>
        <time>2018-06-15T07:51:59Z</time>
      </trkpt>
      <trkpt lat="43.60626" lon="6.58955">
        <ele>591.3</ele>
        <time>2018-06-15T07:52:13Z</time>
      </trkpt>
      <trkpt lat="43.60621" lon="6.58945">
        <ele>592</ele>
        <time>2018-06-15T07:52:25Z</time>
      </trkpt>
      <trkpt lat="43.60617" lon="6.58933">
        <ele>592.9</ele>
        <time>2018-06-15T07:52:37Z</time>
      </trkpt>
      <trkpt lat="43.60613" lon="6.58921">
        <ele>593.9</ele>
        <time>2018-06-15T07:52:50Z</time>
      </trkpt>
      <trkpt lat="43.60607" lon="6.5891">
        <ele>594.6</ele>
        <time>2018-06-15T07:53:01Z</time>
      </trkpt>
      <trkpt lat="43.60607" lon="6.58897">
        <ele>595.5</ele>
        <time>2018-06-15T07:53:13Z</time>
      </trkpt>
      <trkpt lat="43.60606" lon="6.58884">
        <ele>596.4</ele>
        <time>2018-06-15T07:53:24Z</time>
      </trkpt>
      <trkpt lat="43.60604" lon="6.58871">
        <ele>597.5</ele>
        <time>2018-06-15T07:53:36Z</time>
      </trkpt>
      <trkpt lat="43.60602" lon="6.58858">
        <ele>598.5</ele>
        <time>2018-06-15T07:53:48Z</time>
      </trkpt>
      <trkpt lat="43.60599" lon="6.58845">
        <ele>599.3</ele>
        <time>2018-06-15T07:54:00Z</time>
      </trkpt>
      <trkpt lat="43.60595" lon="6.58834">
        <ele>599.6</ele>
        <time>2018-06-15T07:54:11Z</time>
      </trkpt>
      <trkpt lat="43.6059" lon="6.58823">
        <ele>600.3</ele>
        <time>2018-06-15T07:54:21Z</time>
      </trkpt>
      <trkpt lat="43.60593" lon="6.58811">
        <ele>601.4</ele>
        <time>2018-06-15T07:54:34Z</time>
      </trkpt>
      <trkpt lat="43.606" lon="6.5882">
        <ele>603.9</ele>
        <time>2018-06-15T07:54:56Z</time>
      </trkpt>
      <trkpt lat="43.60606" lon="6.58831">
        <ele>604.9</ele>
        <time>2018-06-15T07:55:09Z</time>
      </trkpt>
      <trkpt lat="43.60612" lon="6.58841">
        <ele>605.8</ele>
        <time>2018-06-15T07:55:27Z</time>
      </trkpt>
      <trkpt lat="43.60619" lon="6.5885">
        <ele>606.3</ele>
        <time>2018-06-15T07:55:39Z</time>
      </trkpt>
      <trkpt lat="43.60624" lon="6.58861">
        <ele>608.1</ele>
        <time>2018-06-15T07:55:53Z</time>
      </trkpt>
      <trkpt lat="43.60632" lon="6.5887">
        <ele>609.3</ele>
        <time>2018-06-15T07:56:04Z</time>
      </trkpt>
      <trkpt lat="43.60639" lon="6.58877">
        <ele>610.2</ele>
        <time>2018-06-15T07:56:14Z</time>
      </trkpt>
      <trkpt lat="43.60648" lon="6.58883">
        <ele>611.8</ele>
        <time>2018-06-15T07:56:28Z</time>
      </trkpt>
      <trkpt lat="43.60657" lon="6.58884">
        <ele>612.2</ele>
        <time>2018-06-15T07:57:00Z</time>
      </trkpt>
      <trkpt lat="43.60665" lon="6.5889">
        <ele>616.2</ele>
        <time>2018-06-15T08:02:22Z</time>
      </trkpt>
      <trkpt lat="43.60673" lon="6.58885">
        <ele>617.6</ele>
        <time>2018-06-15T08:02:34Z</time>
      </trkpt>
      <trkpt lat="43.60682" lon="6.58884">
        <ele>618.8</ele>
        <time>2018-06-15T08:02:46Z</time>
      </trkpt>
      <trkpt lat="43.60691" lon="6.58882">
        <ele>619.5</ele>
        <time>2018-06-15T08:02:57Z</time>
      </trkpt>
      <trkpt lat="43.607" lon="6.5888">
        <ele>620.5</ele>
        <time>2018-06-15T08:03:07Z</time>
      </trkpt>
      <trkpt lat="43.60709" lon="6.58877">
        <ele>622.1</ele>
        <time>2018-06-15T08:03:23Z</time>
      </trkpt>
      <trkpt lat="43.60708" lon="6.58864">
        <ele>623.5</ele>
        <time>2018-06-15T08:03:36Z</time>
      </trkpt>
      <trkpt lat="43.60699" lon="6.58863">
        <ele>624.5</ele>
        <time>2018-06-15T08:03:52Z</time>
      </trkpt>
      <trkpt lat="43.60692" lon="6.58855">
        <ele>625.4</ele>
        <time>2018-06-15T08:04:04Z</time>
      </trkpt>
      <trkpt lat="43.60683" lon="6.58848">
        <ele>626.7</ele>
        <time>2018-06-15T08:04:16Z</time>
      </trkpt>
      <trkpt lat="43.60675" lon="6.58841">
        <ele>628.2</ele>
        <time>2018-06-15T08:04:33Z</time>
      </trkpt>
      <trkpt lat="43.60671" lon="6.5883">
        <ele>629.2</ele>
        <time>2018-06-15T08:04:45Z</time>
      </trkpt>
      <trkpt lat="43.60667" lon="6.58818">
        <ele>630.3</ele>
        <time>2018-06-15T08:04:57Z</time>
      </trkpt>
      <trkpt lat="43.60664" lon="6.58806">
        <ele>631.2</ele>
        <time>2018-06-15T08:05:09Z</time>
      </trkpt>
      <trkpt lat="43.60661" lon="6.58793">
        <ele>633.1</ele>
        <time>2018-06-15T08:05:20Z</time>
      </trkpt>
      <trkpt lat="43.60658" lon="6.58781">
        <ele>633.6</ele>
        <time>2018-06-15T08:05:31Z</time>
      </trkpt>
      <trkpt lat="43.60657" lon="6.58769">
        <ele>634.9</ele>
        <time>2018-06-15T08:05:43Z</time>
      </trkpt>
      <trkpt lat="43.60659" lon="6.58756">
        <ele>636.1</ele>
        <time>2018-06-15T08:05:58Z</time>
      </trkpt>
      <trkpt lat="43.6066" lon="6.58743">
        <ele>637.5</ele>
        <time>2018-06-15T08:06:12Z</time>
      </trkpt>
      <trkpt lat="43.60661" lon="6.5873">
        <ele>638.4</ele>
        <time>2018-06-15T08:06:25Z</time>
      </trkpt>
      <trkpt lat="43.60661" lon="6.58718">
        <ele>639.9</ele>
        <time>2018-06-15T08:06:37Z</time>
      </trkpt>
      <trkpt lat="43.60661" lon="6.58705">
        <ele>641.2</ele>
        <time>2018-06-15T08:06:48Z</time>
      </trkpt>
      <trkpt lat="43.60664" lon="6.58693">
        <ele>641.8</ele>
        <time>2018-06-15T08:06:59Z</time>
      </trkpt>
      <trkpt lat="43.60668" lon="6.58681">
        <ele>643.1</ele>
        <time>2018-06-15T08:07:11Z</time>
      </trkpt>
      <trkpt lat="43.60671" lon="6.58669">
        <ele>644.4</ele>
        <time>2018-06-15T08:07:25Z</time>
      </trkpt>
      <trkpt lat="43.60676" lon="6.58658">
        <ele>645.9</ele>
        <time>2018-06-15T08:07:37Z</time>
      </trkpt>
      <trkpt lat="43.60681" lon="6.58647">
        <ele>646.8</ele>
        <time>2018-06-15T08:07:48Z</time>
      </trkpt>
      <trkpt lat="43.60689" lon="6.58641">
        <ele>648.1</ele>
        <time>2018-06-15T08:08:01Z</time>
      </trkpt>
      <trkpt lat="43.60699" lon="6.58642">
        <ele>649.5</ele>
        <time>2018-06-15T08:08:17Z</time>
      </trkpt>
      <trkpt lat="43.60707" lon="6.58647">
        <ele>650.6</ele>
        <time>2018-06-15T08:08:42Z</time>
      </trkpt>
      <trkpt lat="43.60716" lon="6.58652">
        <ele>650.5</ele>
        <time>2018-06-15T08:11:30Z</time>
      </trkpt>
      <trkpt lat="43.60725" lon="6.58655">
        <ele>651.4</ele>
        <time>2018-06-15T08:11:45Z</time>
      </trkpt>
      <trkpt lat="43.60733" lon="6.5866">
        <ele>652.7</ele>
        <time>2018-06-15T08:11:58Z</time>
      </trkpt>
      <trkpt lat="43.60743" lon="6.58656">
        <ele>653.4</ele>
        <time>2018-06-15T08:12:10Z</time>
      </trkpt>
      <trkpt lat="43.60749" lon="6.58645">
        <ele>654.9</ele>
        <time>2018-06-15T08:12:25Z</time>
      </trkpt>
      <trkpt lat="43.60751" lon="6.58633">
        <ele>655.2</ele>
        <time>2018-06-15T08:12:37Z</time>
      </trkpt>
      <trkpt lat="43.60751" lon="6.5862">
        <ele>655.5</ele>
        <time>2018-06-15T08:12:48Z</time>
      </trkpt>
      <trkpt lat="43.60751" lon="6.58607">
        <ele>656.2</ele>
        <time>2018-06-15T08:13:00Z</time>
      </trkpt>
      <trkpt lat="43.60749" lon="6.58594">
        <ele>657.4</ele>
        <time>2018-06-15T08:13:12Z</time>
      </trkpt>
      <trkpt lat="43.60745" lon="6.58583">
        <ele>658.6</ele>
        <time>2018-06-15T08:13:23Z</time>
      </trkpt>
      <trkpt lat="43.6074" lon="6.58571">
        <ele>659.4</ele>
        <time>2018-06-15T08:13:33Z</time>
      </trkpt>
      <trkpt lat="43.60735" lon="6.5856">
        <ele>660.4</ele>
        <time>2018-06-15T08:13:45Z</time>
      </trkpt>
      <trkpt lat="43.60733" lon="6.58547">
        <ele>661.5</ele>
        <time>2018-06-15T08:13:59Z</time>
      </trkpt>
      <trkpt lat="43.6073" lon="6.58535">
        <ele>662.9</ele>
        <time>2018-06-15T08:14:09Z</time>
      </trkpt>
      <trkpt lat="43.60726" lon="6.58524">
        <ele>663.4</ele>
        <time>2018-06-15T08:14:20Z</time>
      </trkpt>
      <trkpt lat="43.60721" lon="6.58512">
        <ele>664.5</ele>
        <time>2018-06-15T08:14:30Z</time>
      </trkpt>
      <trkpt lat="43.60717" lon="6.58501">
        <ele>665.6</ele>
        <time>2018-06-15T08:14:40Z</time>
      </trkpt>
      <trkpt lat="43.60717" lon="6.58488">
        <ele>666</ele>
        <time>2018-06-15T08:15:25Z</time>
      </trkpt>
      <trkpt lat="43.60715" lon="6.58475">
        <ele>666.5</ele>
        <time>2018-06-15T08:15:38Z</time>
      </trkpt>
      <trkpt lat="43.60716" lon="6.58462">
        <ele>667.5</ele>
        <time>2018-06-15T08:15:49Z</time>
      </trkpt>
      <trkpt lat="43.60716" lon="6.58449">
        <ele>667.9</ele>
        <time>2018-06-15T08:16:01Z</time>
      </trkpt>
      <trkpt lat="43.60716" lon="6.58436">
        <ele>668.5</ele>
        <time>2018-06-15T08:16:10Z</time>
      </trkpt>
      <trkpt lat="43.60718" lon="6.58422">
        <ele>668.3</ele>
        <time>2018-06-15T08:16:20Z</time>
      </trkpt>
      <trkpt lat="43.60723" lon="6.58411">
        <ele>667.5</ele>
        <time>2018-06-15T08:16:30Z</time>
      </trkpt>
      <trkpt lat="43.60732" lon="6.58407">
        <ele>667.8</ele>
        <time>2018-06-15T08:17:15Z</time>
      </trkpt>
      <trkpt lat="43.60741" lon="6.58411">
        <ele>671</ele>
        <time>2018-06-15T08:17:45Z</time>
      </trkpt>
      <trkpt lat="43.6075" lon="6.58416">
        <ele>672.8</ele>
        <time>2018-06-15T08:18:07Z</time>
      </trkpt>
      <trkpt lat="43.60759" lon="6.58422">
        <ele>674</ele>
        <time>2018-06-15T08:18:21Z</time>
      </trkpt>
      <trkpt lat="43.60765" lon="6.58431">
        <ele>676.1</ele>
        <time>2018-06-15T08:18:41Z</time>
      </trkpt>
      <trkpt lat="43.6077" lon="6.58443">
        <ele>678.3</ele>
        <time>2018-06-15T08:18:57Z</time>
      </trkpt>
      <trkpt lat="43.60776" lon="6.58453">
        <ele>679.3</ele>
        <time>2018-06-15T08:19:07Z</time>
      </trkpt>
      <trkpt lat="43.60785" lon="6.58458">
        <ele>680.8</ele>
        <time>2018-06-15T08:19:26Z</time>
      </trkpt>
      <trkpt lat="43.60794" lon="6.58462">
        <ele>681.9</ele>
        <time>2018-06-15T08:19:42Z</time>
      </trkpt>
      <trkpt lat="43.60802" lon="6.58464">
        <ele>683.2</ele>
        <time>2018-06-15T08:19:58Z</time>
      </trkpt>
      <trkpt lat="43.60811" lon="6.58461">
        <ele>683.9</ele>
        <time>2018-06-15T08:20:11Z</time>
      </trkpt>
      <trkpt lat="43.6082" lon="6.58462">
        <ele>684.9</ele>
        <time>2018-06-15T08:20:22Z</time>
      </trkpt>
      <trkpt lat="43.60829" lon="6.58462">
        <ele>685.7</ele>
        <time>2018-06-15T08:20:34Z</time>
      </trkpt>
      <trkpt lat="43.60839" lon="6.58464">
        <ele>686</ele>
        <time>2018-06-15T08:20:50Z</time>
      </trkpt>
      <trkpt lat="43.60848" lon="6.58466">
        <ele>686.1</ele>
        <time>2018-06-15T08:21:11Z</time>
      </trkpt>
      <trkpt lat="43.60856" lon="6.5847">
        <ele>685.8</ele>
        <time>2018-06-15T08:22:22Z</time>
      </trkpt>
      <trkpt lat="43.60863" lon="6.58478">
        <ele>686.1</ele>
        <time>2018-06-15T08:24:18Z</time>
      </trkpt>
      <trkpt lat="43.60872" lon="6.58475">
        <ele>686.4</ele>
        <time>2018-06-15T08:24:53Z</time>
      </trkpt>
      <trkpt lat="43.60863" lon="6.58471">
        <ele>686.2</ele>
        <time>2018-06-15T08:27:28Z</time>
      </trkpt>
      <trkpt lat="43.60853" lon="6.58469">
        <ele>686.1</ele>
        <time>2018-06-15T08:27:42Z</time>
      </trkpt>
      <trkpt lat="43.60844" lon="6.58465">
        <ele>686.1</ele>
        <time>2018-06-15T08:27:57Z</time>
      </trkpt>
      <trkpt lat="43.60835" lon="6.58464">
        <ele>685.7</ele>
        <time>2018-06-15T08:28:12Z</time>
      </trkpt>
      <trkpt lat="43.60826" lon="6.58461">
        <ele>685.1</ele>
        <time>2018-06-15T08:28:23Z</time>
      </trkpt>
      <trkpt lat="43.60816" lon="6.58464">
        <ele>683.8</ele>
        <time>2018-06-15T08:28:41Z</time>
      </trkpt>
      <trkpt lat="43.60806" lon="6.58464">
        <ele>682.7</ele>
        <time>2018-06-15T08:28:56Z</time>
      </trkpt>
      <trkpt lat="43.60797" lon="6.58462">
        <ele>681.9</ele>
        <time>2018-06-15T08:29:08Z</time>
      </trkpt>
      <trkpt lat="43.60788" lon="6.58461">
        <ele>680.4</ele>
        <time>2018-06-15T08:29:29Z</time>
      </trkpt>
      <trkpt lat="43.60781" lon="6.58452">
        <ele>679.4</ele>
        <time>2018-06-15T08:29:47Z</time>
      </trkpt>
      <trkpt lat="43.60777" lon="6.58441">
        <ele>678.1</ele>
        <time>2018-06-15T08:30:04Z</time>
      </trkpt>
      <trkpt lat="43.60771" lon="6.58431">
        <ele>675.9</ele>
        <time>2018-06-15T08:30:22Z</time>
      </trkpt>
      <trkpt lat="43.60764" lon="6.58422">
        <ele>674.1</ele>
        <time>2018-06-15T08:30:40Z</time>
      </trkpt>
      <trkpt lat="43.60755" lon="6.58417">
        <ele>672.8</ele>
        <time>2018-06-15T08:30:58Z</time>
      </trkpt>
      <trkpt lat="43.60747" lon="6.58413">
        <ele>670.8</ele>
        <time>2018-06-15T08:31:21Z</time>
      </trkpt>
      <trkpt lat="43.60739" lon="6.58408">
        <ele>668.8</ele>
        <time>2018-06-15T08:31:40Z</time>
      </trkpt>
      <trkpt lat="43.60732" lon="6.584">
        <ele>667.6</ele>
        <time>2018-06-15T08:31:50Z</time>
      </trkpt>
      <trkpt lat="43.60736" lon="6.58388">
        <ele>666.3</ele>
        <time>2018-06-15T08:32:05Z</time>
      </trkpt>
      <trkpt lat="43.60743" lon="6.58379">
        <ele>665.1</ele>
        <time>2018-06-15T08:32:16Z</time>
      </trkpt>
      <trkpt lat="43.60749" lon="6.58368">
        <ele>663.9</ele>
        <time>2018-06-15T08:32:28Z</time>
      </trkpt>
      <trkpt lat="43.60756" lon="6.5836">
        <ele>663.2</ele>
        <time>2018-06-15T08:32:38Z</time>
      </trkpt>
      <trkpt lat="43.60762" lon="6.58351">
        <ele>662.1</ele>
        <time>2018-06-15T08:32:47Z</time>
      </trkpt>
      <trkpt lat="43.60768" lon="6.58341">
        <ele>661.5</ele>
        <time>2018-06-15T08:32:56Z</time>
      </trkpt>
      <trkpt lat="43.60773" lon="6.5833">
        <ele>660.6</ele>
        <time>2018-06-15T08:33:06Z</time>
      </trkpt>
      <trkpt lat="43.60778" lon="6.58319">
        <ele>659.7</ele>
        <time>2018-06-15T08:33:16Z</time>
      </trkpt>
      <trkpt lat="43.60783" lon="6.58308">
        <ele>658.8</ele>
        <time>2018-06-15T08:33:24Z</time>
      </trkpt>
      <trkpt lat="43.60787" lon="6.58296">
        <ele>658.2</ele>
        <time>2018-06-15T08:33:32Z</time>
      </trkpt>
      <trkpt lat="43.60791" lon="6.58285">
        <ele>657.7</ele>
        <time>2018-06-15T08:33:40Z</time>
      </trkpt>
      <trkpt lat="43.60797" lon="6.58274">
        <ele>658.1</ele>
        <time>2018-06-15T08:33:49Z</time>
      </trkpt>
      <trkpt lat="43.60804" lon="6.58265">
        <ele>658.8</ele>
        <time>2018-06-15T08:33:58Z</time>
      </trkpt>
      <trkpt lat="43.6081" lon="6.58257">
        <ele>659.5</ele>
        <time>2018-06-15T08:34:07Z</time>
      </trkpt>
      <trkpt lat="43.60819" lon="6.5825">
        <ele>660.2</ele>
        <time>2018-06-15T08:34:16Z</time>
      </trkpt>
      <trkpt lat="43.60827" lon="6.58244">
        <ele>660.4</ele>
        <time>2018-06-15T08:34:26Z</time>
      </trkpt>
      <trkpt lat="43.60834" lon="6.58234">
        <ele>661.1</ele>
        <time>2018-06-15T08:34:35Z</time>
      </trkpt>
      <trkpt lat="43.60839" lon="6.58225">
        <ele>661.4</ele>
        <time>2018-06-15T08:34:44Z</time>
      </trkpt>
      <trkpt lat="43.60846" lon="6.58215">
        <ele>661.6</ele>
        <time>2018-06-15T08:34:54Z</time>
      </trkpt>
      <trkpt lat="43.60854" lon="6.58207">
        <ele>661.5</ele>
        <time>2018-06-15T08:35:02Z</time>
      </trkpt>
      <trkpt lat="43.60861" lon="6.582">
        <ele>661.1</ele>
        <time>2018-06-15T08:35:11Z</time>
      </trkpt>
      <trkpt lat="43.60864" lon="6.58188">
        <ele>660.9</ele>
        <time>2018-06-15T08:35:21Z</time>
      </trkpt>
      <trkpt lat="43.60865" lon="6.58175">
        <ele>661.2</ele>
        <time>2018-06-15T08:35:31Z</time>
      </trkpt>
      <trkpt lat="43.60866" lon="6.58162">
        <ele>661.2</ele>
        <time>2018-06-15T08:35:42Z</time>
      </trkpt>
      <trkpt lat="43.60868" lon="6.58149">
        <ele>661.2</ele>
        <time>2018-06-15T08:35:51Z</time>
      </trkpt>
      <trkpt lat="43.6087" lon="6.58135">
        <ele>661.4</ele>
        <time>2018-06-15T08:36:00Z</time>
      </trkpt>
      <trkpt lat="43.60872" lon="6.58123">
        <ele>661.5</ele>
        <time>2018-06-15T08:36:08Z</time>
      </trkpt>
      <trkpt lat="43.60875" lon="6.58109">
        <ele>661.3</ele>
        <time>2018-06-15T08:36:17Z</time>
      </trkpt>
      <trkpt lat="43.60876" lon="6.58097">
        <ele>660.6</ele>
        <time>2018-06-15T08:36:26Z</time>
      </trkpt>
      <trkpt lat="43.60877" lon="6.58083">
        <ele>660.1</ele>
        <time>2018-06-15T08:36:36Z</time>
      </trkpt>
      <trkpt lat="43.60877" lon="6.5807">
        <ele>660.1</ele>
        <time>2018-06-15T08:36:46Z</time>
      </trkpt>
      <trkpt lat="43.60877" lon="6.58057">
        <ele>659.5</ele>
        <time>2018-06-15T08:36:56Z</time>
      </trkpt>
      <trkpt lat="43.60877" lon="6.58044">
        <ele>659.2</ele>
        <time>2018-06-15T08:37:06Z</time>
      </trkpt>
      <trkpt lat="43.60874" lon="6.58031">
        <ele>658.9</ele>
        <time>2018-06-15T08:37:16Z</time>
      </trkpt>
      <trkpt lat="43.6087" lon="6.5802">
        <ele>658.5</ele>
        <time>2018-06-15T08:37:24Z</time>
      </trkpt>
      <trkpt lat="43.60864" lon="6.5801">
        <ele>658.5</ele>
        <time>2018-06-15T08:37:32Z</time>
      </trkpt>
      <trkpt lat="43.60858" lon="6.58">
        <ele>658.5</ele>
        <time>2018-06-15T08:37:41Z</time>
      </trkpt>
      <trkpt lat="43.60853" lon="6.57988">
        <ele>658.3</ele>
        <time>2018-06-15T08:37:51Z</time>
      </trkpt>
      <trkpt lat="43.60847" lon="6.57976">
        <ele>657.6</ele>
        <time>2018-06-15T08:38:00Z</time>
      </trkpt>
      <trkpt lat="43.60843" lon="6.57965">
        <ele>657.3</ele>
        <time>2018-06-15T08:38:09Z</time>
      </trkpt>
      <trkpt lat="43.60838" lon="6.57954">
        <ele>657.8</ele>
        <time>2018-06-15T08:38:18Z</time>
      </trkpt>
      <trkpt lat="43.60832" lon="6.57941">
        <ele>657.3</ele>
        <time>2018-06-15T08:38:27Z</time>
      </trkpt>
      <trkpt lat="43.60828" lon="6.57931">
        <ele>656.7</ele>
        <time>2018-06-15T08:38:37Z</time>
      </trkpt>
      <trkpt lat="43.60823" lon="6.5792">
        <ele>656</ele>
        <time>2018-06-15T08:38:47Z</time>
      </trkpt>
      <trkpt lat="43.6082" lon="6.57908">
        <ele>655.5</ele>
        <time>2018-06-15T08:38:56Z</time>
      </trkpt>
      <trkpt lat="43.60817" lon="6.57895">
        <ele>654.2</ele>
        <time>2018-06-15T08:39:06Z</time>
      </trkpt>
      <trkpt lat="43.60815" lon="6.57883">
        <ele>654</ele>
        <time>2018-06-15T08:39:14Z</time>
      </trkpt>
      <trkpt lat="43.60815" lon="6.5787">
        <ele>653.9</ele>
        <time>2018-06-15T08:39:23Z</time>
      </trkpt>
      <trkpt lat="43.60816" lon="6.57857">
        <ele>653.7</ele>
        <time>2018-06-15T08:39:32Z</time>
      </trkpt>
      <trkpt lat="43.60816" lon="6.57844">
        <ele>653.3</ele>
        <time>2018-06-15T08:39:41Z</time>
      </trkpt>
      <trkpt lat="43.60818" lon="6.57832">
        <ele>653</ele>
        <time>2018-06-15T08:39:50Z</time>
      </trkpt>
      <trkpt lat="43.6082" lon="6.57819">
        <ele>653</ele>
        <time>2018-06-15T08:39:59Z</time>
      </trkpt>
      <trkpt lat="43.60822" lon="6.57806">
        <ele>653.2</ele>
        <time>2018-06-15T08:40:09Z</time>
      </trkpt>
      <trkpt lat="43.60824" lon="6.57793">
        <ele>652.6</ele>
        <time>2018-06-15T08:40:18Z</time>
      </trkpt>
      <trkpt lat="43.60827" lon="6.57781">
        <ele>652.3</ele>
        <time>2018-06-15T08:40:27Z</time>
      </trkpt>
      <trkpt lat="43.60831" lon="6.57769">
        <ele>651.8</ele>
        <time>2018-06-15T08:40:36Z</time>
      </trkpt>
      <trkpt lat="43.60835" lon="6.57757">
        <ele>650.9</ele>
        <time>2018-06-15T08:40:46Z</time>
      </trkpt>
      <trkpt lat="43.60841" lon="6.57746">
        <ele>650</ele>
        <time>2018-06-15T08:40:56Z</time>
      </trkpt>
      <trkpt lat="43.60847" lon="6.57736">
        <ele>649.2</ele>
        <time>2018-06-15T08:41:06Z</time>
      </trkpt>
      <trkpt lat="43.60852" lon="6.57725">
        <ele>648.7</ele>
        <time>2018-06-15T08:41:16Z</time>
      </trkpt>
      <trkpt lat="43.60859" lon="6.57716">
        <ele>648.2</ele>
        <time>2018-06-15T08:41:26Z</time>
      </trkpt>
      <trkpt lat="43.60865" lon="6.57706">
        <ele>647.4</ele>
        <time>2018-06-15T08:41:37Z</time>
      </trkpt>
      <trkpt lat="43.60872" lon="6.57697">
        <ele>647.1</ele>
        <time>2018-06-15T08:41:45Z</time>
      </trkpt>
      <trkpt lat="43.60878" lon="6.57687">
        <ele>646.9</ele>
        <time>2018-06-15T08:41:54Z</time>
      </trkpt>
      <trkpt lat="43.60883" lon="6.57676">
        <ele>646.6</ele>
        <time>2018-06-15T08:42:03Z</time>
      </trkpt>
      <trkpt lat="43.60885" lon="6.57663">
        <ele>645.9</ele>
        <time>2018-06-15T08:42:12Z</time>
      </trkpt>
      <trkpt lat="43.60887" lon="6.5765">
        <ele>646.1</ele>
        <time>2018-06-15T08:42:21Z</time>
      </trkpt>
      <trkpt lat="43.60887" lon="6.57637">
        <ele>646.1</ele>
        <time>2018-06-15T08:42:29Z</time>
      </trkpt>
      <trkpt lat="43.60886" lon="6.57624">
        <ele>645.7</ele>
        <time>2018-06-15T08:42:37Z</time>
      </trkpt>
      <trkpt lat="43.60886" lon="6.57612">
        <ele>645.6</ele>
        <time>2018-06-15T08:42:46Z</time>
      </trkpt>
      <trkpt lat="43.60886" lon="6.57598">
        <ele>645.7</ele>
        <time>2018-06-15T08:42:56Z</time>
      </trkpt>
      <trkpt lat="43.60886" lon="6.57585">
        <ele>645.4</ele>
        <time>2018-06-15T08:43:06Z</time>
      </trkpt>
      <trkpt lat="43.60888" lon="6.57572">
        <ele>645.2</ele>
        <time>2018-06-15T08:43:14Z</time>
      </trkpt>
      <trkpt lat="43.60889" lon="6.57559">
        <ele>645.2</ele>
        <time>2018-06-15T08:43:23Z</time>
      </trkpt>
      <trkpt lat="43.60891" lon="6.57547">
        <ele>644.9</ele>
        <time>2018-06-15T08:43:32Z</time>
      </trkpt>
      <trkpt lat="43.60894" lon="6.57534">
        <ele>644.7</ele>
        <time>2018-06-15T08:43:42Z</time>
      </trkpt>
      <trkpt lat="43.60897" lon="6.57522">
        <ele>644.1</ele>
        <time>2018-06-15T08:43:51Z</time>
      </trkpt>
      <trkpt lat="43.60903" lon="6.57511">
        <ele>643.4</ele>
        <time>2018-06-15T08:44:01Z</time>
      </trkpt>
      <trkpt lat="43.60907" lon="6.57499">
        <ele>643.1</ele>
        <time>2018-06-15T08:44:11Z</time>
      </trkpt>
      <trkpt lat="43.6091" lon="6.57487">
        <ele>642.7</ele>
        <time>2018-06-15T08:44:20Z</time>
      </trkpt>
      <trkpt lat="43.60913" lon="6.57474">
        <ele>641.8</ele>
        <time>2018-06-15T08:44:30Z</time>
      </trkpt>
      <trkpt lat="43.60913" lon="6.57461">
        <ele>641.1</ele>
        <time>2018-06-15T08:44:40Z</time>
      </trkpt>
      <trkpt lat="43.60911" lon="6.57448">
        <ele>640.6</ele>
        <time>2018-06-15T08:44:48Z</time>
      </trkpt>
      <trkpt lat="43.60908" lon="6.57436">
        <ele>640.4</ele>
        <time>2018-06-15T08:44:56Z</time>
      </trkpt>
      <trkpt lat="43.60905" lon="6.57423">
        <ele>640.3</ele>
        <time>2018-06-15T08:45:04Z</time>
      </trkpt>
      <trkpt lat="43.60903" lon="6.5741">
        <ele>640.2</ele>
        <time>2018-06-15T08:45:14Z</time>
      </trkpt>
      <trkpt lat="43.60902" lon="6.57396">
        <ele>640.1</ele>
        <time>2018-06-15T08:45:24Z</time>
      </trkpt>
      <trkpt lat="43.60902" lon="6.57383">
        <ele>639.7</ele>
        <time>2018-06-15T08:45:33Z</time>
      </trkpt>
      <trkpt lat="43.60904" lon="6.5737">
        <ele>638.9</ele>
        <time>2018-06-15T08:45:42Z</time>
      </trkpt>
      <trkpt lat="43.60906" lon="6.57355">
        <ele>638</ele>
        <time>2018-06-15T08:45:53Z</time>
      </trkpt>
      <trkpt lat="43.60909" lon="6.57343">
        <ele>638.7</ele>
        <time>2018-06-15T08:46:02Z</time>
      </trkpt>
      <trkpt lat="43.60911" lon="6.5733">
        <ele>638.4</ele>
        <time>2018-06-15T08:46:11Z</time>
      </trkpt>
      <trkpt lat="43.60915" lon="6.57318">
        <ele>637.9</ele>
        <time>2018-06-15T08:46:20Z</time>
      </trkpt>
      <trkpt lat="43.60917" lon="6.57305">
        <ele>638.1</ele>
        <time>2018-06-15T08:46:29Z</time>
      </trkpt>
      <trkpt lat="43.60919" lon="6.57291">
        <ele>638.5</ele>
        <time>2018-06-15T08:46:38Z</time>
      </trkpt>
      <trkpt lat="43.60922" lon="6.5728">
        <ele>638.2</ele>
        <time>2018-06-15T08:46:47Z</time>
      </trkpt>
      <trkpt lat="43.60926" lon="6.57267">
        <ele>637.3</ele>
        <time>2018-06-15T08:46:57Z</time>
      </trkpt>
      <trkpt lat="43.60927" lon="6.57254">
        <ele>636.6</ele>
        <time>2018-06-15T08:47:07Z</time>
      </trkpt>
      <trkpt lat="43.6093" lon="6.57242">
        <ele>636</ele>
        <time>2018-06-15T08:47:16Z</time>
      </trkpt>
      <trkpt lat="43.60935" lon="6.5723">
        <ele>635.1</ele>
        <time>2018-06-15T08:47:26Z</time>
      </trkpt>
      <trkpt lat="43.60938" lon="6.57217">
        <ele>633.6</ele>
        <time>2018-06-15T08:47:36Z</time>
      </trkpt>
      <trkpt lat="43.60941" lon="6.57205">
        <ele>633.3</ele>
        <time>2018-06-15T08:47:45Z</time>
      </trkpt>
      <trkpt lat="43.60941" lon="6.57192">
        <ele>632.7</ele>
        <time>2018-06-15T08:47:54Z</time>
      </trkpt>
      <trkpt lat="43.60942" lon="6.57179">
        <ele>632.3</ele>
        <time>2018-06-15T08:48:04Z</time>
      </trkpt>
      <trkpt lat="43.60938" lon="6.57167">
        <ele>632</ele>
        <time>2018-06-15T08:48:14Z</time>
      </trkpt>
      <trkpt lat="43.60932" lon="6.57158">
        <ele>631.3</ele>
        <time>2018-06-15T08:48:22Z</time>
      </trkpt>
      <trkpt lat="43.60925" lon="6.5715">
        <ele>629.9</ele>
        <time>2018-06-15T08:48:32Z</time>
      </trkpt>
      <trkpt lat="43.60916" lon="6.57144">
        <ele>629.3</ele>
        <time>2018-06-15T08:48:44Z</time>
      </trkpt>
      <trkpt lat="43.60907" lon="6.57139">
        <ele>628.5</ele>
        <time>2018-06-15T08:48:53Z</time>
      </trkpt>
      <trkpt lat="43.60898" lon="6.57132">
        <ele>627.8</ele>
        <time>2018-06-15T08:49:03Z</time>
      </trkpt>
      <trkpt lat="43.6089" lon="6.57123">
        <ele>626.9</ele>
        <time>2018-06-15T08:49:13Z</time>
      </trkpt>
      <trkpt lat="43.60883" lon="6.57115">
        <ele>626.6</ele>
        <time>2018-06-15T08:49:22Z</time>
      </trkpt>
      <trkpt lat="43.60876" lon="6.57106">
        <ele>626.2</ele>
        <time>2018-06-15T08:49:32Z</time>
      </trkpt>
      <trkpt lat="43.60872" lon="6.57095">
        <ele>625.6</ele>
        <time>2018-06-15T08:49:41Z</time>
      </trkpt>
      <trkpt lat="43.6087" lon="6.57082">
        <ele>625</ele>
        <time>2018-06-15T08:49:51Z</time>
      </trkpt>
      <trkpt lat="43.6087" lon="6.57068">
        <ele>624.2</ele>
        <time>2018-06-15T08:50:02Z</time>
      </trkpt>
      <trkpt lat="43.6087" lon="6.57055">
        <ele>622.8</ele>
        <time>2018-06-15T08:50:13Z</time>
      </trkpt>
      <trkpt lat="43.60871" lon="6.57042">
        <ele>622</ele>
        <time>2018-06-15T08:50:23Z</time>
      </trkpt>
      <trkpt lat="43.60874" lon="6.5703">
        <ele>620.8</ele>
        <time>2018-06-15T08:50:32Z</time>
      </trkpt>
      <trkpt lat="43.60875" lon="6.57017">
        <ele>619.8</ele>
        <time>2018-06-15T08:50:42Z</time>
      </trkpt>
      <trkpt lat="43.60875" lon="6.57004">
        <ele>618.7</ele>
        <time>2018-06-15T08:50:52Z</time>
      </trkpt>
      <trkpt lat="43.60876" lon="6.5699">
        <ele>617.4</ele>
        <time>2018-06-15T08:51:03Z</time>
      </trkpt>
      <trkpt lat="43.60878" lon="6.56978">
        <ele>616.6</ele>
        <time>2018-06-15T08:51:13Z</time>
      </trkpt>
      <trkpt lat="43.60879" lon="6.56965">
        <ele>615.9</ele>
        <time>2018-06-15T08:51:22Z</time>
      </trkpt>
      <trkpt lat="43.60884" lon="6.56954">
        <ele>615</ele>
        <time>2018-06-15T08:51:35Z</time>
      </trkpt>
      <trkpt lat="43.60892" lon="6.5695">
        <ele>614.8</ele>
        <time>2018-06-15T08:51:47Z</time>
      </trkpt>
      <trkpt lat="43.60901" lon="6.56946">
        <ele>615.2</ele>
        <time>2018-06-15T08:51:56Z</time>
      </trkpt>
      <trkpt lat="43.60909" lon="6.56938">
        <ele>615.5</ele>
        <time>2018-06-15T08:52:06Z</time>
      </trkpt>
      <trkpt lat="43.60914" lon="6.56926">
        <ele>616.1</ele>
        <time>2018-06-15T08:52:17Z</time>
      </trkpt>
      <trkpt lat="43.60919" lon="6.56916">
        <ele>616.9</ele>
        <time>2018-06-15T08:52:25Z</time>
      </trkpt>
      <trkpt lat="43.60924" lon="6.56904">
        <ele>618.2</ele>
        <time>2018-06-15T08:52:35Z</time>
      </trkpt>
      <trkpt lat="43.60927" lon="6.56892">
        <ele>619</ele>
        <time>2018-06-15T08:52:59Z</time>
      </trkpt>
      <trkpt lat="43.60925" lon="6.5688">
        <ele>619.5</ele>
        <time>2018-06-15T08:53:11Z</time>
      </trkpt>
      <trkpt lat="43.60925" lon="6.56867">
        <ele>619.3</ele>
        <time>2018-06-15T08:53:23Z</time>
      </trkpt>
      <trkpt lat="43.60928" lon="6.56854">
        <ele>619.3</ele>
        <time>2018-06-15T08:53:33Z</time>
      </trkpt>
      <trkpt lat="43.60933" lon="6.56844">
        <ele>619.3</ele>
        <time>2018-06-15T08:53:44Z</time>
      </trkpt>
      <trkpt lat="43.60937" lon="6.56832">
        <ele>619.5</ele>
        <time>2018-06-15T08:53:55Z</time>
      </trkpt>
      <trkpt lat="43.60943" lon="6.56822">
        <ele>619.5</ele>
        <time>2018-06-15T08:54:11Z</time>
      </trkpt>
      <trkpt lat="43.60941" lon="6.5681">
        <ele>619.8</ele>
        <time>2018-06-15T08:54:27Z</time>
      </trkpt>
      <trkpt lat="43.60944" lon="6.56798">
        <ele>619.2</ele>
        <time>2018-06-15T08:55:06Z</time>
      </trkpt>
      <trkpt lat="43.60937" lon="6.56805">
        <ele>617.2</ele>
        <time>2018-06-15T08:58:37Z</time>
      </trkpt>
      <trkpt lat="43.60945" lon="6.5681">
        <ele>618.3</ele>
        <time>2018-06-15T09:02:16Z</time>
      </trkpt>
      <trkpt lat="43.60954" lon="6.5681">
        <ele>618.6</ele>
        <time>2018-06-15T09:07:16Z</time>
      </trkpt>
      <trkpt lat="43.60964" lon="6.56811">
        <ele>618.6</ele>
        <time>2018-06-15T09:07:29Z</time>
      </trkpt>
      <trkpt lat="43.60973" lon="6.56816">
        <ele>619.1</ele>
        <time>2018-06-15T09:07:41Z</time>
      </trkpt>
      <trkpt lat="43.60982" lon="6.56814">
        <ele>618.7</ele>
        <time>2018-06-15T09:07:55Z</time>
      </trkpt>
      <trkpt lat="43.60973" lon="6.56816">
        <ele>618.8</ele>
        <time>2018-06-15T09:09:47Z</time>
      </trkpt>
      <trkpt lat="43.60967" lon="6.56806">
        <ele>619</ele>
        <time>2018-06-15T09:09:58Z</time>
      </trkpt>
      <trkpt lat="43.6096" lon="6.56816">
        <ele>618.6</ele>
        <time>2018-06-15T09:10:18Z</time>
      </trkpt>
      <trkpt lat="43.6095" lon="6.56817">
        <ele>618.4</ele>
        <time>2018-06-15T09:10:26Z</time>
      </trkpt>
      <trkpt lat="43.60943" lon="6.56825">
        <ele>618.7</ele>
        <time>2018-06-15T09:10:37Z</time>
      </trkpt>
      <trkpt lat="43.60934" lon="6.56831">
        <ele>618.7</ele>
        <time>2018-06-15T09:10:47Z</time>
      </trkpt>
      <trkpt lat="43.60927" lon="6.56841">
        <ele>618.6</ele>
        <time>2018-06-15T09:10:56Z</time>
      </trkpt>
      <trkpt lat="43.60923" lon="6.56853">
        <ele>618.1</ele>
        <time>2018-06-15T09:11:24Z</time>
      </trkpt>
      <trkpt lat="43.60916" lon="6.56844">
        <ele>615</ele>
        <time>2018-06-15T09:12:13Z</time>
      </trkpt>
      <trkpt lat="43.60917" lon="6.56831">
        <ele>612.7</ele>
        <time>2018-06-15T09:12:33Z</time>
      </trkpt>
      <trkpt lat="43.60917" lon="6.56818">
        <ele>610.6</ele>
        <time>2018-06-15T09:12:45Z</time>
      </trkpt>
      <trkpt lat="43.60919" lon="6.56805">
        <ele>607.9</ele>
        <time>2018-06-15T09:13:03Z</time>
      </trkpt>
      <trkpt lat="43.60919" lon="6.56792">
        <ele>605.4</ele>
        <time>2018-06-15T09:13:21Z</time>
      </trkpt>
      <trkpt lat="43.6091" lon="6.56789">
        <ele>602.2</ele>
        <time>2018-06-15T09:14:17Z</time>
      </trkpt>
      <trkpt lat="43.60901" lon="6.56795">
        <ele>601.3</ele>
        <time>2018-06-15T09:14:38Z</time>
      </trkpt>
      <trkpt lat="43.60893" lon="6.56801">
        <ele>599.1</ele>
        <time>2018-06-15T09:14:53Z</time>
      </trkpt>
      <trkpt lat="43.60884" lon="6.56804">
        <ele>597.2</ele>
        <time>2018-06-15T09:15:12Z</time>
      </trkpt>
      <trkpt lat="43.60876" lon="6.56811">
        <ele>595.5</ele>
        <time>2018-06-15T09:15:30Z</time>
      </trkpt>
      <trkpt lat="43.60868" lon="6.56818">
        <ele>594.1</ele>
        <time>2018-06-15T09:15:51Z</time>
      </trkpt>
      <trkpt lat="43.60859" lon="6.56815">
        <ele>590</ele>
        <time>2018-06-15T09:16:30Z</time>
      </trkpt>
      <trkpt lat="43.60858" lon="6.56802">
        <ele>587.8</ele>
        <time>2018-06-15T09:16:53Z</time>
      </trkpt>
      <trkpt lat="43.60858" lon="6.5679">
        <ele>585.7</ele>
        <time>2018-06-15T09:17:14Z</time>
      </trkpt>
      <trkpt lat="43.60849" lon="6.56785">
        <ele>583.9</ele>
        <time>2018-06-15T09:17:33Z</time>
      </trkpt>
      <trkpt lat="43.6084" lon="6.56784">
        <ele>581.1</ele>
        <time>2018-06-15T09:17:54Z</time>
      </trkpt>
      <trkpt lat="43.6083" lon="6.56784">
        <ele>580.2</ele>
        <time>2018-06-15T09:18:09Z</time>
      </trkpt>
      <trkpt lat="43.60821" lon="6.56787">
        <ele>577.9</ele>
        <time>2018-06-15T09:18:26Z</time>
      </trkpt>
      <trkpt lat="43.60812" lon="6.56786">
        <ele>576.3</ele>
        <time>2018-06-15T09:18:42Z</time>
      </trkpt>
      <trkpt lat="43.60802" lon="6.56787">
        <ele>574.5</ele>
        <time>2018-06-15T09:18:55Z</time>
      </trkpt>
      <trkpt lat="43.60793" lon="6.56788">
        <ele>572.4</ele>
        <time>2018-06-15T09:19:12Z</time>
      </trkpt>
      <trkpt lat="43.60783" lon="6.56791">
        <ele>570.8</ele>
        <time>2018-06-15T09:19:26Z</time>
      </trkpt>
      <trkpt lat="43.60774" lon="6.56793">
        <ele>569.4</ele>
        <time>2018-06-15T09:19:40Z</time>
      </trkpt>
      <trkpt lat="43.60765" lon="6.56794">
        <ele>568.6</ele>
        <time>2018-06-15T09:19:51Z</time>
      </trkpt>
      <trkpt lat="43.60757" lon="6.56801">
        <ele>566.9</ele>
        <time>2018-06-15T09:20:05Z</time>
      </trkpt>
      <trkpt lat="43.60748" lon="6.56804">
        <ele>566</ele>
        <time>2018-06-15T09:20:17Z</time>
      </trkpt>
      <trkpt lat="43.60738" lon="6.56805">
        <ele>564.4</ele>
        <time>2018-06-15T09:20:31Z</time>
      </trkpt>
      <trkpt lat="43.60731" lon="6.56811">
        <ele>562.8</ele>
        <time>2018-06-15T09:20:42Z</time>
      </trkpt>
      <trkpt lat="43.60723" lon="6.56819">
        <ele>561.5</ele>
        <time>2018-06-15T09:20:58Z</time>
      </trkpt>
      <trkpt lat="43.60715" lon="6.56827">
        <ele>559.8</ele>
        <time>2018-06-15T09:21:14Z</time>
      </trkpt>
      <trkpt lat="43.60707" lon="6.56833">
        <ele>557.4</ele>
        <time>2018-06-15T09:21:28Z</time>
      </trkpt>
      <trkpt lat="43.60702" lon="6.56843">
        <ele>555.9</ele>
        <time>2018-06-15T09:21:43Z</time>
      </trkpt>
      <trkpt lat="43.60695" lon="6.56853">
        <ele>554.1</ele>
        <time>2018-06-15T09:21:56Z</time>
      </trkpt>
      <trkpt lat="43.60687" lon="6.56861">
        <ele>552.2</ele>
        <time>2018-06-15T09:22:08Z</time>
      </trkpt>
      <trkpt lat="43.60679" lon="6.56865">
        <ele>551.1</ele>
        <time>2018-06-15T09:22:18Z</time>
      </trkpt>
      <trkpt lat="43.60674" lon="6.56877">
        <ele>549.3</ele>
        <time>2018-06-15T09:22:29Z</time>
      </trkpt>
      <trkpt lat="43.60667" lon="6.56885">
        <ele>547.3</ele>
        <time>2018-06-15T09:22:42Z</time>
      </trkpt>
      <trkpt lat="43.60658" lon="6.56891">
        <ele>544.9</ele>
        <time>2018-06-15T09:22:54Z</time>
      </trkpt>
      <trkpt lat="43.6065" lon="6.56897">
        <ele>542.3</ele>
        <time>2018-06-15T09:23:14Z</time>
      </trkpt>
      <trkpt lat="43.60642" lon="6.56901">
        <ele>540.2</ele>
        <time>2018-06-15T09:23:25Z</time>
      </trkpt>
      <trkpt lat="43.60631" lon="6.569">
        <ele>538.3</ele>
        <time>2018-06-15T09:23:40Z</time>
      </trkpt>
      <trkpt lat="43.60623" lon="6.56904">
        <ele>535.9</ele>
        <time>2018-06-15T09:23:51Z</time>
      </trkpt>
      <trkpt lat="43.60615" lon="6.5691">
        <ele>533.9</ele>
        <time>2018-06-15T09:24:02Z</time>
      </trkpt>
      <trkpt lat="43.60607" lon="6.56917">
        <ele>532.1</ele>
        <time>2018-06-15T09:24:10Z</time>
      </trkpt>
      <trkpt lat="43.60598" lon="6.56922">
        <ele>530.4</ele>
        <time>2018-06-15T09:24:20Z</time>
      </trkpt>
      <trkpt lat="43.60589" lon="6.56925">
        <ele>528.7</ele>
        <time>2018-06-15T09:24:30Z</time>
      </trkpt>
      <trkpt lat="43.60584" lon="6.56936">
        <ele>527.1</ele>
        <time>2018-06-15T09:24:42Z</time>
      </trkpt>
      <trkpt lat="43.60579" lon="6.56947">
        <ele>525.8</ele>
        <time>2018-06-15T09:24:54Z</time>
      </trkpt>
      <trkpt lat="43.60572" lon="6.56955">
        <ele>525.1</ele>
        <time>2018-06-15T09:25:02Z</time>
      </trkpt>
      <trkpt lat="43.60563" lon="6.56956">
        <ele>523.4</ele>
        <time>2018-06-15T09:25:13Z</time>
      </trkpt>
      <trkpt lat="43.60555" lon="6.56964">
        <ele>521.1</ele>
        <time>2018-06-15T09:25:26Z</time>
      </trkpt>
      <trkpt lat="43.60547" lon="6.5697">
        <ele>519.4</ele>
        <time>2018-06-15T09:25:41Z</time>
      </trkpt>
      <trkpt lat="43.60538" lon="6.56977">
        <ele>517.6</ele>
        <time>2018-06-15T09:25:57Z</time>
      </trkpt>
      <trkpt lat="43.6053" lon="6.56984">
        <ele>516.2</ele>
        <time>2018-06-15T09:26:11Z</time>
      </trkpt>
      <trkpt lat="43.6052" lon="6.56985">
        <ele>514.1</ele>
        <time>2018-06-15T09:26:26Z</time>
      </trkpt>
      <trkpt lat="43.60512" lon="6.56978">
        <ele>512.7</ele>
        <time>2018-06-15T09:26:35Z</time>
      </trkpt>
      <trkpt lat="43.60503" lon="6.56973">
        <ele>510.4</ele>
        <time>2018-06-15T09:26:49Z</time>
      </trkpt>
      <trkpt lat="43.60494" lon="6.56968">
        <ele>508.4</ele>
        <time>2018-06-15T09:27:04Z</time>
      </trkpt>
      <trkpt lat="43.60485" lon="6.56971">
        <ele>507.1</ele>
        <time>2018-06-15T09:27:14Z</time>
      </trkpt>
      <trkpt lat="43.60476" lon="6.56977">
        <ele>504.8</ele>
        <time>2018-06-15T09:27:28Z</time>
      </trkpt>
      <trkpt lat="43.60467" lon="6.56978">
        <ele>503.1</ele>
        <time>2018-06-15T09:27:38Z</time>
      </trkpt>
      <trkpt lat="43.60459" lon="6.56982">
        <ele>502.9</ele>
        <time>2018-06-15T09:28:00Z</time>
      </trkpt>
      <trkpt lat="43.60452" lon="6.56988">
        <ele>501.6</ele>
        <time>2018-06-15T09:30:20Z</time>
      </trkpt>
    </trkseg>
  </trk>
</gpx>